Terminal Aerodrome Forecast
Issued by NWS

Home | Current Version | Previous Version | Text Only | Print | Product List | Glossary On
Versions: 1 2 3 4 5 6 7 8 9 10 11 12 13 14 15 16 17 18 19 20 21 22 23 24 25 26 27 28 29 30 31 32 33 34 35 36 37 38
000
FTUS46 KEKA 202343
TAFACV
TAF
KACV 202343Z 2100/2124 14012G18KT 2SM RA BR SCT008 OVC020
      TEMPO 2100/2104 1SM RA BKN008
     FM210600 18011KT 4SM -RA BR SCT008 OVC015
     FM210900 20009KT 4SM -RA BR SCT015 OVC020
     FM211500 27005KT 5SM BR SCT020 OVC050=

USA.gov is the U.S. government's official web portal to all federal, state and local government web resources and services.